KTOL

Toledo Express Airport

Toledo, Ohio, USA
KTOL 201133Z 2012/2112 16006KT P6SM BKN100 FM201400 17010KT P6SM BKN050 TEMPO 2014/2016 5SM SHRA FM201700 17012G20KT P6SM BKN070 TEMPO 2022/2024 VRB20G35KT 2SM TSRA OVC015CB FM210000 18012KT P6SM -SHRA OVC025 FM210400 19010KT P6SM OVC035
Issued Valid From Valid To
Jul-20 @ 11:33 UTC
(3 hours ago)
Jul-20 @ 12:00 UTC
(2 hours ago)
Jul-21 @ 12:00 UTC
(in 22 hours)
Expired Click to View Jul-20 @ 12:00 to Jul-20 @ 14:00
KTOL 201133Z 2012/2112 16006KT P6SM BKN100
Wind Visibility Clouds
160° at 6 knots Greater than 6 miles
  • Broken at 10,000' AGL
Temporary Jul-20 @ 14:00 to Jul-20 @ 16:00
TEMPO 2014/2016 5SM SHRA
Visibility Conditions
5 miles
  • Rain
From Jul-20 @ 14:00 to Jul-20 @ 17:00
FM201400 17010KT P6SM BKN050
Wind Visibility Clouds
170° at 10 knots Greater than 6 miles
  • Broken at 5,000' AGL
From Jul-20 @ 17:00 to Jul-21 @ 00:00
FM201700 17012G20KT P6SM BKN070
Wind Visibility Clouds
170° at 12 knots
 Gusting to 20 knots
Greater than 6 miles
  • Broken at 7,000' AGL
Temporary Jul-20 @ 22:00 to Jul-21 @ 00:00
TEMPO 2022/2024 VRB20G35KT 2SM TSRA OVC015CB
Wind Visibility Clouds Conditions
Variable at 20 knots
 Gusting to 35 knots
2 miles
  • Overcast at 1,500' AGL
  • Thunderstorm
  • Rain
From Jul-21 @ 00:00 to Jul-21 @ 04:00
FM210000 18012KT P6SM -SHRA OVC025
Wind Visibility Clouds Conditions
180° at 12 knots Greater than 6 miles
  • Overcast at 2,500' AGL
  • Light Rain
From Jul-21 @ 04:00 to Jul-21 @ 12:00
FM210400 19010KT P6SM OVC035
Wind Visibility Clouds
190° at 10 knots Greater than 6 miles
  • Overcast at 3,500' AGL
KTOL 201133Z 2012/2112 16006KT P6SM BKN100 FM201400 17010KT P6SM BKN050 TEMPO 2014/2016 5SM SHRA FM201700 17012G20KT P6SM BKN070 TEMPO 2022/2024 VRB20G35KT 2SM TSRA OVC015CB FM210000 18012KT P6SM -SHRA OVC025 FM210400 19010KT P6SM OVC035
Issued Jul-20 @ 11:33 UTC
(3 hours ago)
Valid From Jul-20 @ 12:00 UTC
(2 hours ago)
Valid To Jul-21 @ 12:00 UTC
(in 22 hours)
Jul-20 @ 12:00 - Jul-20 @ 14:00
Wind Visibility
160° at 6 knots Greater than 6 miles
Clouds
  • Broken at 10,000' AGL
Temporary Jul-20 @ 14:00 - Jul-20 @ 16:00
Conditions
  • Rain
From Jul-20 @ 14:00 - Jul-20 @ 17:00
Wind Visibility
170° at 10 knots Greater than 6 miles
Clouds
  • Broken at 5,000' AGL
From Jul-20 @ 17:00 - Jul-21 @ 00:00
Wind Visibility
170° at 12 knots
 Gusting to 20 knots
Greater than 6 miles
Clouds
  • Broken at 7,000' AGL
Temporary Jul-20 @ 22:00 - Jul-21 @ 00:00
Wind Visibility
Variable at 20 knots
 Gusting to 35 knots
2 miles
Clouds
  • Overcast at 1,500' AGL
Conditions
  • Thunderstorm
  • Rain
From Jul-21 @ 00:00 - Jul-21 @ 04:00
Wind Visibility
180° at 12 knots Greater than 6 miles
Clouds
  • Overcast at 2,500' AGL
Conditions
  • Light Rain
From Jul-21 @ 04:00 - Jul-21 @ 12:00
Wind Visibility
190° at 10 knots Greater than 6 miles
Clouds
  • Overcast at 3,500' AGL